Detall de PIREP

Printer-friendly versionPDF version

[2013/03/16 11:15:00]
Flight IATA:CT3305
Pilot Number:012
Company ICAO:CAT
Aircraft Type:A320/E
PAX:150
Departing Airport: GMMN
Destination Airport: LEZG
Alternate Airport:LEMD
Online: VATSIM
Route:CSD UR722 CBA UG5 KORIS UL27 VJF UN871 RONKO UM601 SURCO
Flight Level:F360
No Slew and time accel
No pause
Crash detect
Detect pilot in Cockpit between each 30 and 45 minutes
11:15 Zero fuel Weight: 121620 Lbs, Fuel Weight: 22511 Lbs
11:15 VATSIM:GMMN 161100Z 20007KT CAVOK 23/15 Q1012 NOSIG
11:15 VATSIM:LEZG 161100Z 10008KT 070V130 9999 BKN040 08/M00 Q1012
11:15 VOICE CATALONIAN
11:17 Parking Brakes off
11:22 Take-off
11:22 Take off Weight: 143249 Lbs
11:22 Wind: 205º @ 007 Knots Heading: 165º
11:22 POS N33º 21´ 56´´ W007º 35´ 14´´
11:22 Gear Up: 171 Knots
11:22 Flaps:3 at 171 Knots
11:23 Flaps:2 at 192 Knots
11:23 Flaps:1 at 199 Knots
11:23 Flaps:0 at 218 Knots
11:37 Wind:246º@078 Knots Heading: 020º Ground Speed: 525 Knots Altitude 29875 ft
11:41 TOC
11:41 Fuel Weight: 17422 Lb
11:52 Wind:250º@089 Knots Heading: 040º Ground Speed: 527 Knots Altitude 35990 ft
12:07 Wind:256º@087 Knots Heading: 014º Ground Speed: 493 Knots Altitude 35974 ft
12:22 Wind:263º@087 Knots Heading: 025º Ground Speed: 499 Knots Altitude 35958 ft
12:36 TOD
12:36 Fuel Weight: 12564 Lb
12:37 Wind:271º@091 Knots Heading: 024º Ground Speed: 489 Knots Altitude 35242 ft
12:52 Wind:202º@010 Knots Heading: 219º Ground Speed: 259 Knots Altitude 6889 ft
12:56 Flaps:1 at 225 Knots
12:56 Flaps:3 at 217 Knots
12:57 Flaps:4 at 183 Knots
12:57 Gear Down: 169 Knots
12:57 Flaps:5 at 158 Knots
12:59 TouchDown:Rate -334 ft/min Speed: 141 Knots
13:00 VATSIM:LEZG 161230Z 10009KT 070V140 9000 -RA FEW025 BKN065 09/03 Q1011
13:00 Land
13:00 Wind:115º@009 Knots
13:00 H7 Wind:246º@078 Knots Heading: 020º Ground Speed: 525 Knots Altitude 29875 ft
11:41 TOC
11:41 Fuel Weight: 17422 Lb
11:52 Wind:250º@089 Knots Heading: 040º Ground Speed: 527 Knots Altitude 35990 ft
12:07 Wind:256º@087 Knots Heading: 014º Ground Speed: 493 Knots Altitude 35974 ft
12:22 Wind:263º@087 Knots Heading: 025º Ground Speed: 499 Knots Altitude 35958 ft
12:36 TOD
12:36 Fuel Weight: 12564 Lb
12:37 Wind:271º@091 Knots Heading: 024º Ground Speed: 489 Knots Altitude 35242 ft
12:52 Wind:202º@010 Knots Heading: 219º Ground Speed: 259 Knots Altitude 6889 ft
12:56 Flaps:1 at 225 Knots
12:56 Flaps:3 at 217 Knots
12:57 Flaps:4 at 183 Knots
12:57 Gear Down: 169 Knots
12:57 Flaps:5 at 158 Knots
12:59 TouchDown:Rate -334 ft/min Speed: 141 Knots
13:00 VATSIM:LEZG 161230Z 10009KT 070V140 9000 -RA FEW025 BKN065 09/03 Q1011
13:00 Land
13:00 Wind:115º@009 Knots
13:00 H7 Wind:246º@078 Knots Heading: 020º Ground Speed: 525 Knots Altitude 29875 ft
11:41 TOC
11:41 Fuel Weight: 17422 Lb
11:52 Wind:250º@089 Knots Heading: 040º Ground Speed: 527 Knots Altitude 35990 ft
12:07 Wind:256º@087 Knots Heading: 014º Ground Speed: 493 Knots Altitude 35974 ft
12:22 Wind:263º@087 Knots Heading: 025º Ground Speed: 499 Knots Altitude 35958 ft
12:36 TOD
12:36 Fuel Weight: 12564 Lb
12:37 Wind:271º@091 Knots Heading: 024º Ground Speed: 489 Knots Altitude 35242 ft
12:52 Wind:202º@010 Knots Heading: 219º Ground Speed: 259 Knots Altitude 6889 ft
12:56 Flaps:1 at 225 Knots
12:56 Flaps:3 at 217 Knots
12:57 Flaps:4 at 183 Knots
12:57 Gear Down: 169 Knots
12:57 Flaps:5 at 158 Knots
12:59 TouchDown:Rate -334 ft/min Speed: 141 Knots
13:00 VATSIM:LEZG 161230Z 10009KT 070V140 9000 -RA FEW025 BKN065 09/03 Q1011
13:00 Land
13:00 Wind:115º@009 Knots
13:00 Heading: 300º
13:00 Flight Duration: 01:38
13:00 Landing Weight: 132560 Lbs
13:00 POS N41º 39´ 40´´ W001º 01´ 19´´
13:01 Parking brakes on
13:01 Block to Block Duration: 01:44
13:01 Final Fuel: 10881 Lbls
13:01 Spent Fuel: 11629 Lbls
13:01 Flight Length: 723 NM
13:01 TOD Land Length: 126 NM

Exportar CSV

Powered by Drupal - Modified by Danger4k